Time;durP1;ratioP1;P1;durP2;ratioP2;P2;SDS_P1;SDS_P2;PMS_P1;PMS_P2;Temp;Humidity;BMP_temperature;BMP_pressure;BME280_temperature;BME280_humidity;BME280_pressure;Samples;Min_cycle;Max_cycle;Signal;HPM_P1;HPM_P2
2021/10/01 00:00:12;;;;;;;;;;;;;;;15.25;46.80;102145.91;4998413;28;96506;-84
2021/10/01 00:02:39;;;;;;;;;;;;;;;15.23;46.74;102147.78;5001668;28;96599;-83
2021/10/01 00:05:05;;;;;;;;;;;;;;;15.23;46.85;102145.09;5002872;28;96470;-82
2021/10/01 00:07:34;;;;;;;;;;;;;;;15.20;46.78;102146.06;5003365;28;96859;-81
2021/10/01 00:10:01;;;;;;;;;;;;;;;14.74;47.95;102147.50;5003508;28;95903;-81
2021/10/01 00:12:27;;;;;;;;;;;;;;;14.97;47.68;102140.59;5003292;28;96539;-83
2021/10/01 00:14:56;;;;;;;;;;;;;;;15.08;47.22;102146.47;5003363;28;100179;-82
2021/10/01 00:17:23;;;;;;;;;;;;;;;15.13;47.26;102140.06;5003025;28;100021;-82
2021/10/01 00:19:52;;;;;;;;;;;;;;;15.23;47.02;102132.63;5003958;28;95894;-81
2021/10/01 00:22:19;;;;;;;;;;;;;;;15.04;47.46;102136.81;5003404;28;95958;-83
2021/10/01 00:24:47;;;;;;;;;;;;;;;14.97;47.61;102138.81;5002451;28;98194;-80
2021/10/01 00:27:13;;;;;;;;;;;;;;;15.13;47.16;102133.88;5002640;28;99458;-84
2021/10/01 00:29:40;;;;;;;;;;;;;;;15.17;47.24;102127.50;5003023;28;96368;-84
2021/10/01 00:32:08;;;;;;;;;;;;;;;15.17;46.85;102132.84;5003040;28;95920;-85
2021/10/01 00:34:34;;;;;;;;;;;;;;;15.01;47.06;102124.50;5002739;28;96775;-81
2021/10/01 00:37:00;;;;;;;;;;;;;;;14.95;47.49;102130.00;5000487;28;99532;-83
2021/10/01 00:39:27;;;;;;;;;;;;;;;14.94;47.65;102130.06;4999664;28;96683;-83
2021/10/01 00:41:58;;;;;;;;;;;;;;;15.19;47.07;102123.03;4999773;28;96555;-84
2021/10/01 00:44:25;;;;;;;;;;;;;;;14.95;47.49;102121.16;4999578;28;99639;-84
2021/10/01 00:46:51;;;;;;;;;;;;;;;15.04;47.31;102119.06;5000137;28;97805;-84
2021/10/01 00:49:18;;;;;;;;;;;;;;;15.16;47.15;102120.47;5001568;28;96465;-84
2021/10/01 00:51:45;;;;;;;;;;;;;;;15.02;47.56;102114.72;5002129;28;96308;-82
2021/10/01 00:54:12;;;;;;;;;;;;;;;15.11;47.42;102114.41;5001261;28;98072;-80
2021/10/01 00:56:39;;;;;;;;;;;;;;;14.87;47.88;102110.75;5002378;28;98001;-83
2021/10/01 00:59:07;;;;;;;;;;;;;;;14.82;47.97;102107.38;4999554;28;96765;-84
2021/10/01 01:01:33;;;;;;;;;;;;;;;14.83;48.10;102106.47;4995742;28;96670;-83
2021/10/01 01:04:01;;;;;;;;;;;;;;;15.10;47.43;102099.34;4993883;28;97083;-83
2021/10/01 01:06:33;;;;;;;;;;;;;;;14.77;47.84;102107.50;4994268;28;98788;-82
2021/10/01 01:09:02;;;;;;;;;;;;;;;14.77;48.25;102109.28;4991706;28;96474;-83
2021/10/01 01:11:37;;;;;;;;;;;;;;;14.88;47.96;102098.31;4994353;28;96679;-83
2021/10/01 01:14:11;;;;;;;;;;;;;;;14.77;48.36;102104.84;4997650;28;96823;-81
2021/10/01 01:19:39;;;;;;;;;;;;;;;14.52;48.96;102098.53;4999847;28;96388;-82
2021/10/01 01:22:12;;;;;;;;;;;;;;;14.71;48.81;102096.16;4995200;28;96649;-84
2021/10/01 01:24:59;;;;;;;;;;;;;;;14.38;49.71;102099.84;4982972;28;100737;-84
2021/10/01 01:30:27;;;;;;;;;;;;;;;14.77;48.59;102098.63;4998187;28;96541;-85
2021/10/01 01:44:25;;;;;;;;;;;;;;;14.54;49.35;102091.38;5013390;22;97018;-86
2021/10/01 01:46:52;;;;;;;;;;;;;;;14.43;49.63;102092.63;4980573;28;98013;-84
2021/10/01 01:49:20;;;;;;;;;;;;;;;14.68;49.14;102085.63;4964518;28;96963;-84
2021/10/01 01:51:47;;;;;;;;;;;;;;;14.47;49.46;102089.84;4969225;28;96670;-84
2021/10/01 01:54:17;;;;;;;;;;;;;;;14.63;49.36;102087.59;4966887;28;97017;-85
2021/10/01 01:56:43;;;;;;;;;;;;;;;14.54;49.49;102088.72;4961843;28;99911;-85
2021/10/01 01:59:10;;;;;;;;;;;;;;;14.61;49.24;102082.31;4977147;28;99360;-85
2021/10/01 02:04:22;;;;;;;;;;;;;;;14.07;51.15;102089.22;4984693;28;96613;-84
2021/10/01 02:06:50;;;;;;;;;;;;;;;14.05;50.80;102091.91;4981318;28;99420;-84
2021/10/01 02:09:17;;;;;;;;;;;;;;;14.05;50.64;102081.28;4962401;28;97373;-84
2021/10/01 02:11:45;;;;;;;;;;;;;;;14.46;49.86;102081.88;4959047;28;97303;-85
2021/10/01 02:14:13;;;;;;;;;;;;;;;14.40;49.69;102074.97;4967231;28;96862;-84
2021/10/01 02:16:41;;;;;;;;;;;;;;;14.17;50.23;102082.75;4963905;28;99306;-84
2021/10/01 02:19:09;;;;;;;;;;;;;;;14.64;49.32;102082.19;4979664;28;98072;-84
2021/10/01 02:21:36;;;;;;;;;;;;;;;14.44;49.53;102084.59;4984241;28;96927;-84
2021/10/01 02:24:03;;;;;;;;;;;;;;;14.42;49.96;102075.81;4968746;28;96868;-83
2021/10/01 02:26:35;;;;;;;;;;;;;;;14.72;49.38;102080.16;4970517;28;97893;-84
2021/10/01 02:29:03;;;;;;;;;;;;;;;14.43;49.62;102074.91;4965431;28;98665;-85
2021/10/01 02:31:33;;;;;;;;;;;;;;;14.48;49.70;102070.31;4967756;28;96869;-84
2021/10/01 02:34:04;;;;;;;;;;;;;;;14.32;49.77;102072.50;4964201;28;96847;-84
2021/10/01 02:36:31;;;;;;;;;;;;;;;13.92;50.79;102072.78;4968252;28;97218;-84
2021/10/01 02:38:57;;;;;;;;;;;;;;;14.07;50.54;102075.94;4971713;28;97907;-83
2021/10/01 02:41:24;;;;;;;;;;;;;;;14.15;50.47;102069.50;4968687;28;97054;-84
2021/10/01 02:43:50;;;;;;;;;;;;;;;14.19;50.29;102067.59;4986817;28;97141;-83
2021/10/01 02:46:17;;;;;;;;;;;;;;;14.45;49.84;102066.84;4991400;28;100331;-84
2021/10/01 02:48:43;;;;;;;;;;;;;;;14.18;50.13;102061.41;4972836;28;100570;-84
2021/10/01 02:51:15;;;;;;;;;;;;;;;14.19;50.22;102063.16;4975020;28;96647;-84
2021/10/01 02:53:46;;;;;;;;;;;;;;;14.07;50.42;102065.31;4980738;28;96857;-83
2021/10/01 02:56:14;;;;;;;;;;;;;;;14.20;50.46;102066.69;4980091;28;100737;-84
2021/10/01 02:58:42;;;;;;;;;;;;;;;14.15;50.15;102065.97;4962830;28;96782;-84
2021/10/01 03:01:10;;;;;;;;;;;;;;;14.22;50.25;102059.53;4963656;28;96717;-84
2021/10/01 03:03:37;;;;;;;;;;;;;;;13.98;50.62;102060.28;4963349;28;96917;-84
2021/10/01 03:06:05;;;;;;;;;;;;;;;14.12;50.55;102060.72;4968111;28;99320;-84
2021/10/01 03:08:34;;;;;;;;;;;;;;;14.22;49.87;102054.22;4977743;28;100434;-84
2021/10/01 03:11:02;;;;;;;;;;;;;;;14.29;49.82;102050.47;4975577;28;96274;-84
2021/10/01 03:13:29;;;;;;;;;;;;;;;14.03;50.52;102045.06;4974152;28;96735;-84
2021/10/01 03:15:58;;;;;;;;;;;;;;;14.07;50.44;102049.34;4968564;28;99454;-83
2021/10/01 03:18:25;;;;;;;;;;;;;;;14.24;49.93;102045.28;4979328;28;98180;-84
2021/10/01 03:20:51;;;;;;;;;;;;;;;14.01;50.70;102047.75;4977131;28;96681;-84
2021/10/01 03:23:20;;;;;;;;;;;;;;;14.23;50.30;102048.00;4978297;28;96910;-84
2021/10/01 03:25:48;;;;;;;;;;;;;;;14.47;49.67;102041.97;4983256;28;102041;-84
2021/10/01 03:28:16;;;;;;;;;;;;;;;14.35;50.18;102043.19;4969180;28;101040;-84
2021/10/01 03:30:45;;;;;;;;;;;;;;;14.47;49.65;102041.97;4961747;28;96563;-84
2021/10/01 03:33:11;;;;;;;;;;;;;;;14.45;49.78;102042.91;4961020;28;97018;-85
2021/10/01 03:35:40;;;;;;;;;;;;;;;14.24;50.09;102041.78;4963736;28;101289;-84
2021/10/01 03:38:07;;;;;;;;;;;;;;;13.76;51.11;102036.97;4969019;28;100396;-84
2021/10/01 03:40:34;;;;;;;;;;;;;;;13.64;51.95;102033.78;4963793;28;96832;-84
2021/10/01 03:43:03;;;;;;;;;;;;;;;13.98;50.92;102031.03;4982684;28;96839;-84
2021/10/01 03:45:29;;;;;;;;;;;;;;;14.01;50.87;102028.28;4981280;28;99169;-84
2021/10/01 03:47:56;;;;;;;;;;;;;;;13.93;51.00;102028.50;4980672;28;98800;-85
2021/10/01 03:50:23;;;;;;;;;;;;;;;14.00;51.07;102034.50;4981181;28;96906;-85
2021/10/01 03:52:49;;;;;;;;;;;;;;;13.99;50.60;102028.31;4943689;28;96783;-84
2021/10/01 03:55:20;;;;;;;;;;;;;;;13.61;51.82;102025.88;4943050;28;100465;-85
2021/10/01 03:57:47;;;;;;;;;;;;;;;13.82;51.44;102030.59;4978674;28;99865;-84
2021/10/01 04:00:25;;;;;;;;;;;;;;;13.56;52.04;102021.59;4981181;28;96705;-85
2021/10/01 04:02:51;;;;;;;;;;;;;;;13.82;51.11;102020.84;4973353;28;96909;-85
2021/10/01 04:05:19;;;;;;;;;;;;;;;13.86;51.01;102017.19;4967370;28;97584;-85
2021/10/01 04:07:46;;;;;;;;;;;;;;;13.61;51.16;102023.22;4962933;28;101262;-85
2021/10/01 04:10:13;;;;;;;;;;;;;;;13.85;50.60;102018.09;4964756;28;96742;-85
2021/10/01 04:12:40;;;;;;;;;;;;;;;13.81;50.75;102016.44;4963954;28;96947;-85
2021/10/01 04:15:08;;;;;;;;;;;;;;;14.00;50.27;102021.22;4969801;28;96923;-85
2021/10/01 04:17:38;;;;;;;;;;;;;;;14.08;50.52;102017.44;4973074;28;97722;-85
2021/10/01 04:20:05;;;;;;;;;;;;;;;14.11;50.02;102017.31;4975798;28;96941;-85
2021/10/01 04:22:32;;;;;;;;;;;;;;;13.94;50.56;102011.66;4992867;28;96831;-84
2021/10/01 04:24:59;;;;;;;;;;;;;;;13.83;50.63;102009.31;4997535;28;96961;-85
2021/10/01 04:27:26;;;;;;;;;;;;;;;13.98;50.39;102007.13;4997405;28;98201;-85
2021/10/01 04:29:52;;;;;;;;;;;;;;;13.74;50.75;102009.56;4993184;28;97798;-85
2021/10/01 04:32:19;;;;;;;;;;;;;;;13.97;50.27;102006.25;4972164;28;96724;-85
2021/10/01 04:34:59;;;;;;;;;;;;;;;14.11;49.72;102000.53;4995980;28;97010;-84
2021/10/01 04:37:26;;;;;;;;;;;;;;;13.84;50.19;101996.91;4985022;28;98291;-85
2021/10/01 04:39:55;;;;;;;;;;;;;;;13.96;49.91;101999.19;4996107;28;96599;-84
2021/10/01 04:42:22;;;;;;;;;;;;;;;13.62;50.65;102009.91;4967664;28;96763;-85
2021/10/01 04:44:49;;;;;;;;;;;;;;;13.91;50.02;102004.63;4962793;28;99528;-85
2021/10/01 04:47:17;;;;;;;;;;;;;;;13.75;50.44;101998.03;4961186;28;99828;-85
2021/10/01 04:49:43;;;;;;;;;;;;;;;13.69;50.52;101987.59;4978005;28;96807;-84
2021/10/01 04:52:11;;;;;;;;;;;;;;;13.81;50.23;101986.34;4979295;28;98194;-84
2021/10/01 04:54:38;;;;;;;;;;;;;;;13.75;50.37;101991.84;4981161;28;99214;-83
2021/10/01 04:57:05;;;;;;;;;;;;;;;13.69;50.38;101989.38;4976428;28;99191;-82
2021/10/01 04:59:32;;;;;;;;;;;;;;;13.57;50.85;101987.94;4969067;28;96550;-84
2021/10/01 05:01:58;;;;;;;;;;;;;;;13.64;50.44;101984.19;4968023;28;96807;-84
2021/10/01 05:04:26;;;;;;;;;;;;;;;13.85;50.16;101994.19;4970980;28;100761;-85
2021/10/01 05:09:39;;;;;;;;;;;;;;;13.61;50.84;101989.56;4987898;28;95960;-87
2021/10/01 05:12:05;;;;;;;;;;;;;;;13.53;50.88;101987.13;5002839;28;95856;-88
2021/10/01 05:19:56;;;;;;;;;;;;;;;13.78;50.23;102002.41;4966077;28;96598;-83
2021/10/01 05:22:25;;;;;;;;;;;;;;;13.66;50.57;101990.31;4971486;28;97565;-90
2021/10/01 05:24:53;;;;;;;;;;;;;;;13.80;50.24;101993.44;4969615;28;98335;-84
2021/10/01 05:27:20;;;;;;;;;;;;;;;13.82;50.38;101998.72;4981711;28;97965;-83
2021/10/01 05:29:47;;;;;;;;;;;;;;;14.03;49.71;101995.44;4978877;28;96178;-83
2021/10/01 05:32:13;;;;;;;;;;;;;;;13.71;50.10;101996.38;4981994;28;96017;-85
2021/10/01 05:34:40;;;;;;;;;;;;;;;13.59;50.55;101999.38;4981988;28;98737;-82
2021/10/01 05:37:07;;;;;;;;;;;;;;;13.80;50.18;101996.09;4990669;28;100062;-83
2021/10/01 05:39:33;;;;;;;;;;;;;;;13.89;49.77;101998.50;4988913;28;95813;-82
2021/10/01 05:42:01;;;;;;;;;;;;;;;13.33;51.43;101999.22;4980553;28;96837;-84
2021/10/01 05:44:27;;;;;;;;;;;;;;;13.57;50.73;102002.09;4980984;28;99331;-84
2021/10/01 05:46:54;;;;;;;;;;;;;;;13.68;50.34;101995.59;4981864;28;97712;-84
2021/10/01 05:49:22;;;;;;;;;;;;;;;13.66;50.10;102002.72;4977563;28;96017;-84
2021/10/01 05:51:51;;;;;;;;;;;;;;;13.87;50.20;102002.09;4981853;28;96396;-85
2021/10/01 05:54:22;;;;;;;;;;;;;;;13.79;49.80;101994.34;4980559;28;100363;-84
2021/10/01 05:56:49;;;;;;;;;;;;;;;14.07;49.27;101994.41;4980426;28;98459;-82
2021/10/01 05:59:17;;;;;;;;;;;;;;;14.19;49.06;101998.47;4981515;28;96602;-84
2021/10/01 06:01:44;;;;;;;;;;;;;;;14.10;48.97;101996.13;4980666;28;95981;-83
2021/10/01 06:04:11;;;;;;;;;;;;;;;14.23;48.93;102005.47;4969890;28;99555;-84
2021/10/01 06:06:38;;;;;;;;;;;;;;;14.32;48.49;101999.84;4966438;28;99703;-84
2021/10/01 06:09:08;;;;;;;;;;;;;;;14.33;48.29;101997.16;4967636;28;96589;-85
2021/10/01 06:11:34;;;;;;;;;;;;;;;14.33;48.39;102001.59;4966870;28;96752;-85
2021/10/01 06:14:02;;;;;;;;;;;;;;;14.36;48.20;102006.81;4962142;28;101344;-85
2021/10/01 06:16:30;;;;;;;;;;;;;;;14.35;48.37;102005.09;4961114;28;99854;-84
2021/10/01 06:18:57;;;;;;;;;;;;;;;14.44;48.17;102004.81;4966929;28;97052;-83
2021/10/01 06:21:24;;;;;;;;;;;;;;;14.78;47.67;101999.28;4968444;28;96887;-84
2021/10/01 06:23:51;;;;;;;;;;;;;;;14.95;47.30;102002.25;4977565;28;98915;-84
2021/10/01 06:26:17;;;;;;;;;;;;;;;15.13;46.73;101998.09;4973130;28;98160;-85
2021/10/01 06:28:43;;;;;;;;;;;;;;;15.14;46.71;101997.19;4960227;28;96847;-84
2021/10/01 06:31:11;;;;;;;;;;;;;;;15.20;46.06;101994.28;4967153;28;96872;-84
2021/10/01 06:33:40;;;;;;;;;;;;;;;15.32;45.78;101991.19;4972108;28;98297;-84
2021/10/01 06:36:06;;;;;;;;;;;;;;;15.26;45.95;101988.75;4963914;28;99425;-84
2021/10/01 06:38:33;;;;;;;;;;;;;;;15.39;45.78;101982.06;4963350;28;96768;-85
2021/10/01 06:41:00;;;;;;;;;;;;;;;15.55;45.30;101987.75;4966754;28;96939;-84
2021/10/01 06:43:28;;;;;;;;;;;;;;;15.22;45.87;101992.47;4962934;28;98776;-84
2021/10/01 06:45:56;;;;;;;;;;;;;;;15.10;46.18;101991.06;4957951;28;99305;-84
2021/10/01 06:48:30;;;;;;;;;;;;;;;15.19;46.11;101989.88;4966453;28;97366;-84
2021/10/01 07:35:59;;;;;;;;;;;;;;;15.67;44.10;101994.41;4966515;28;97375;-84
2021/10/01 08:20:31;;;;;;;;;;;;;;;16.93;41.58;101960.94;4934499;28;96822;-85
2021/10/01 08:22:57;;;;;;;;;;;;;;;17.13;41.46;101966.25;4964107;28;100882;-84
2021/10/01 08:25:24;;;;;;;;;;;;;;;17.76;40.52;101964.34;4972815;28;100966;-88
2021/10/01 08:27:50;;;;;;;;;;;;;;;17.17;40.84;101953.66;4968830;28;96789;-84
2021/10/01 08:30:21;;;;;;;;;;;;;;;17.29;40.77;101954.91;4967420;28;96938;-84
2021/10/01 08:32:49;;;;;;;;;;;;;;;17.81;39.81;101956.13;4976567;28;100017;-84
2021/10/01 08:35:16;;;;;;;;;;;;;;;17.96;40.19;101951.88;4978881;28;98498;-84
2021/10/01 08:37:42;;;;;;;;;;;;;;;18.15;40.23;101955.41;4967292;28;97634;-84
2021/10/01 08:40:09;;;;;;;;;;;;;;;18.07;39.97;101957.56;4967310;28;96785;-84
2021/10/01 08:42:38;;;;;;;;;;;;;;;18.11;39.74;101953.81;4965096;28;99087;-84
2021/10/01 08:45:05;;;;;;;;;;;;;;;18.50;39.29;101959.91;4970345;28;98721;-85
2021/10/01 08:47:36;;;;;;;;;;;;;;;18.11;39.47;101952.00;4969700;28;96796;-85
2021/10/01 08:50:04;;;;;;;;;;;;;;;18.00;39.67;101945.41;4967339;28;96840;-85
2021/10/01 08:52:31;;;;;;;;;;;;;;;18.34;39.13;101942.84;4986497;28;98369;-83
2021/10/01 08:55:00;;;;;;;;;;;;;;;18.19;39.39;101936.44;4988216;28;99800;-85
2021/10/01 08:57:39;;;;;;;;;;;;;;;18.28;39.20;101940.47;4969509;28;96721;-86
2021/10/01 09:02:57;;;;;;;;;;;;;;;18.97;38.55;101932.59;4963703;28;96917;-86
2021/10/01 09:05:25;;;;;;;;;;;;;;;18.52;39.12;101939.28;4972116;28;98383;-87
2021/10/01 09:07:52;;;;;;;;;;;;;;;18.99;38.51;101931.53;4968011;28;96590;-84
2021/10/01 09:10:21;;;;;;;;;;;;;;;18.91;38.15;101932.88;4967532;28;96738;-84
2021/10/01 09:12:53;;;;;;;;;;;;;;;19.04;37.98;101929.47;4964553;28;97537;-84
2021/10/01 09:15:29;;;;;;;;;;;;;;;19.39;37.31;101938.34;4967603;28;98129;-88
2021/10/01 09:18:05;;;;;;;;;;;;;;;19.05;38.72;101931.22;4981019;28;95931;-87
2021/10/01 09:20:34;;;;;;;;;;;;;;;18.73;38.67;101928.47;4986334;28;96044;-89
2021/10/01 09:23:27;;;;;;;;;;;;;;;19.09;37.85;101923.91;4979437;28;99039;-88
2021/10/01 09:28:54;;;;;;;;;;;;;;;19.11;38.50;101922.00;4977743;28;96531;-89
2021/10/01 09:32:05;;;;;;;;;;;;;;;19.01;38.11;101910.91;4979018;28;96647;-91
2021/10/01 09:37:26;;;;;;;;;;;;;;;19.40;37.98;101905.25;4979968;28;96685;-90
2021/10/01 10:02:26;;;;;;;;;;;;;;;20.34;36.60;101871.41;4966990;28;96038;-87
2021/10/01 10:07:52;;;;;;;;;;;;;;;19.98;37.06;101861.81;4979757;28;96700;-88
2021/10/01 10:10:34;;;;;;;;;;;;;;;20.86;35.90;101869.19;4981782;28;99260;-88
2021/10/01 10:32:57;;;;;;;;;;;;;;;19.60;37.29;101844.34;4969750;28;96223;-83
2021/10/01 10:41:23;;;;;;;;;;;;;;;20.27;36.41;101844.03;4961171;28;96777;-85
2021/10/01 10:46:53;;;;;;;;;;;;;;;20.58;36.70;101841.28;4981189;28;95934;-84
2021/10/01 10:49:22;;;;;;;;;;;;;;;20.35;36.22;101828.34;4984050;28;96096;-87
2021/10/01 10:52:11;;;;;;;;;;;;;;;20.48;36.59;101831.22;4981442;28;99388;-85
2021/10/01 10:57:36;;;;;;;;;;;;;;;20.65;36.17;101825.69;4981867;28;95877;-83
2021/10/01 11:00:06;;;;;;;;;;;;;;;20.48;36.45;101815.94;4981147;28;96833;-87
2021/10/01 11:02:41;;;;;;;;;;;;;;;19.80;37.60;101826.19;4978917;28;98896;-86
2021/10/01 11:05:30;;;;;;;;;;;;;;;20.35;36.21;101820.31;4979674;28;99142;-86
2021/10/01 11:08:00;;;;;;;;;;;;;;;20.83;35.76;101824.53;4981640;28;95900;-87
2021/10/01 11:10:35;;;;;;;;;;;;;;;20.86;35.51;101805.56;4979324;28;95950;-84
2021/10/01 11:13:21;;;;;;;;;;;;;;;20.46;36.15;101807.13;4993122;28;99364;-88
2021/10/01 11:16:03;;;;;;;;;;;;;;;21.23;35.06;101806.84;4980167;28;96373;-87
2021/10/01 11:18:32;;;;;;;;;;;;;;;21.09;34.67;101801.44;4984637;28;96006;-80
2021/10/01 11:21:01;;;;;;;;;;;;;;;20.96;34.41;101803.16;4981495;28;96599;-82
2021/10/01 11:23:29;;;;;;;;;;;;;;;20.62;35.11;101802.53;4981694;28;96443;-85
2021/10/01 11:25:56;;;;;;;;;;;;;;;20.73;35.27;101796.53;4981442;28;99602;-82
2021/10/01 11:31:15;;;;;;;;;;;;;;;21.36;33.57;101793.47;4981698;28;96897;-86
2021/10/01 11:33:50;;;;;;;;;;;;;;;21.41;33.36;101783.28;4977950;28;96739;-87
2021/10/01 11:39:16;;;;;;;;;;;;;;;21.39;34.00;101787.91;4981521;28;96034;-84
2021/10/01 11:41:45;;;;;;;;;;;;;;;21.28;33.32;101769.78;4978975;28;96122;-81
2021/10/01 11:44:15;;;;;;;;;;;;;;;21.33;33.46;101769.50;4980617;28;99377;-83
2021/10/01 11:46:43;;;;;;;;;;;;;;;21.50;33.29;101763.00;4972416;28;97540;-83
2021/10/01 11:49:15;;;;;;;;;;;;;;;21.46;33.91;101762.38;4962179;28;97304;-82
2021/10/01 11:51:41;;;;;;;;;;;;;;;21.45;33.21;101761.50;4962578;28;96877;-82
2021/10/01 11:54:09;;;;;;;;;;;;;;;21.44;33.19;101757.09;4964530;28;98205;-82
2021/10/01 11:56:37;;;;;;;;;;;;;;;21.33;33.92;101761.44;4965734;28;98026;-82
2021/10/01 11:59:03;;;;;;;;;;;;;;;21.24;33.99;101746.75;4969500;28;96810;-83
2021/10/01 12:01:30;;;;;;;;;;;;;;;21.55;33.56;101753.69;4969111;28;96739;-82
2021/10/01 12:03:58;;;;;;;;;;;;;;;21.06;32.72;101739.84;4964272;28;100322;-83
2021/10/01 12:06:25;;;;;;;;;;;;;;;21.30;33.06;101748.19;4963520;28;100989;-84
2021/10/01 12:08:56;;;;;;;;;;;;;;;21.53;32.33;101741.31;4965540;28;97062;-83
2021/10/01 12:11:26;;;;;;;;;;;;;;;21.70;32.50;101733.84;4963706;28;96994;-81
2021/10/01 12:13:55;;;;;;;;;;;;;;;21.27;32.13;101737.59;4965376;28;99595;-82
2021/10/01 12:16:22;;;;;;;;;;;;;;;21.14;32.17;101729.44;4965423;28;99237;-82
2021/10/01 12:18:54;;;;;;;;;;;;;;;21.29;31.92;101730.31;4963260;28;96766;-82
2021/10/01 12:21:22;;;;;;;;;;;;;;;21.43;31.79;101719.53;4961685;28;96835;-82
2021/10/01 12:23:49;;;;;;;;;;;;;;;21.79;31.54;101717.06;4961070;28;99345;-84
2021/10/01 12:26:23;;;;;;;;;;;;;;;21.08;31.62;101714.56;4964892;28;101851;-81
2021/10/01 12:28:56;;;;;;;;;;;;;;;20.91;31.67;101705.88;4952817;28;96887;-82
2021/10/01 12:31:22;;;;;;;;;;;;;;;20.80;31.51;101703.88;4964782;28;96752;-82
2021/10/01 12:33:49;;;;;;;;;;;;;;;20.98;31.80;101697.31;4964172;28;98115;-81
2021/10/01 12:36:17;;;;;;;;;;;;;;;21.28;30.85;101699.00;4965701;28;99688;-81
2021/10/01 12:38:43;;;;;;;;;;;;;;;21.55;30.86;101691.81;4971344;28;96768;-82
2021/10/01 12:41:11;;;;;;;;;;;;;;;21.66;30.64;101696.50;4971360;28;96960;-85
2021/10/01 12:43:43;;;;;;;;;;;;;;;21.29;30.90;101684.63;4965583;28;99182;-85
2021/10/01 12:46:12;;;;;;;;;;;;;;;21.90;31.01;101683.22;4964608;28;101361;-85
2021/10/01 12:49:11;;;;;;;;;;;;;;;21.96;30.23;101672.06;4970359;28;96663;-90
2021/10/01 12:51:41;;;;;;;;;;;;;;;22.16;30.45;101666.19;4969592;28;96632;-88
2021/10/01 12:54:21;;;;;;;;;;;;;;;21.98;29.30;101670.16;4969401;28;99677;-86
2021/10/01 12:57:11;;;;;;;;;;;;;;;22.50;28.48;101673.63;4986278;28;100449;-88
2021/10/01 12:59:41;;;;;;;;;;;;;;;22.38;27.90;101654.78;4988329;28;96145;-87
2021/10/01 13:02:12;;;;;;;;;;;;;;;22.49;27.98;101660.25;4975298;28;96750;-88
2021/10/01 13:04:46;;;;;;;;;;;;;;;22.60;27.42;101658.50;4974388;28;98564;-87
2021/10/01 13:07:29;;;;;;;;;;;;;;;23.24;26.89;101653.00;4970149;28;99114;-86
2021/10/01 13:09:58;;;;;;;;;;;;;;;23.40;26.29;101638.25;4965965;28;97400;-85
2021/10/01 13:12:36;;;;;;;;;;;;;;;23.30;26.45;101637.22;4968897;28;97441;-84
2021/10/01 13:15:15;;;;;;;;;;;;;;;23.39;26.98;101633.84;4966355;28;99448;-85
2021/10/01 13:17:43;;;;;;;;;;;;;;;23.69;27.02;101629.84;4975742;28;100702;-85
2021/10/01 13:20:11;;;;;;;;;;;;;;;23.31;26.72;101620.06;4963268;28;96934;-81
2021/10/01 13:22:53;;;;;;;;;;;;;;;23.85;26.56;101627.66;4962157;28;97194;-85
2021/10/01 13:25:22;;;;;;;;;;;;;;;23.67;26.66;101629.09;4968837;28;98924;-83
2021/10/01 13:27:49;;;;;;;;;;;;;;;23.70;26.66;101631.53;4971084;28;99643;-84
2021/10/01 13:30:15;;;;;;;;;;;;;;;23.90;25.95;101624.59;4962993;28;96870;-84
2021/10/01 13:32:43;;;;;;;;;;;;;;;23.89;25.88;101617.50;4963445;28;96861;-82
2021/10/01 13:35:11;;;;;;;;;;;;;;;23.69;25.79;101624.44;4963268;28;98205;-83
2021/10/01 13:37:38;;;;;;;;;;;;;;;23.86;25.77;101609.63;4966466;28;98653;-84
2021/10/01 13:40:05;;;;;;;;;;;;;;;24.76;25.50;101606.88;4976150;28;96532;-87
2021/10/01 13:42:40;;;;;;;;;;;;;;;24.26;26.05;101594.75;4973530;28;97175;-86
2021/10/01 13:45:07;;;;;;;;;;;;;;;24.67;26.04;101599.56;4976645;28;96954;-83
2021/10/01 13:47:35;;;;;;;;;;;;;;;24.81;26.65;101591.16;4980766;28;99185;-83
2021/10/01 13:50:06;;;;;;;;;;;;;;;25.27;25.64;101590.09;4980178;28;96682;-83
2021/10/01 13:52:32;;;;;;;;;;;;;;;24.37;26.10;101591.19;4984268;28;95930;-84
2021/10/01 13:55:02;;;;;;;;;;;;;;;23.80;26.78;101594.78;4979656;28;99872;-90
2021/10/01 13:57:33;;;;;;;;;;;;;;;24.28;26.12;101590.13;4976147;28;99068;-92
2021/10/01 14:00:06;;;;;;;;;;;;;;;23.37;27.33;101592.63;4977215;28;96501;-90
2021/10/01 14:05:18;;;;;;;;;;;;;;;23.08;27.93;101582.34;4996235;28;98881;-89
2021/10/01 14:07:46;;;;;;;;;;;;;;;22.54;28.16;101580.84;4984269;28;100167;-91
2021/10/01 14:10:14;;;;;;;;;;;;;;;22.37;28.45;101586.59;4977060;28;96590;-91
2021/10/01 14:12:41;;;;;;;;;;;;;;;22.60;28.67;101585.78;4976915;28;96621;-91
2021/10/01 14:30:37;;;;;;;;;;;;;;;22.29;29.00;101562.06;4973569;28;96645;-92
2021/10/01 14:33:04;;;;;;;;;;;;;;;22.36;28.83;101562.47;4978782;28;96563;-91
2021/10/01 14:35:31;;;;;;;;;;;;;;;21.78;29.30;101567.41;4972252;28;100420;-88
2021/10/01 14:37:58;;;;;;;;;;;;;;;22.06;29.15;101549.34;4975524;28;99315;-83
2021/10/01 14:40:25;;;;;;;;;;;;;;;21.75;28.94;101561.38;4937298;28;96747;-85
2021/10/01 14:42:52;;;;;;;;;;;;;;;21.87;29.28;101549.75;4970109;28;96737;-85
2021/10/01 14:45:18;;;;;;;;;;;;;;;21.94;28.74;101547.50;4968448;28;98569;-84
2021/10/01 14:47:47;;;;;;;;;;;;;;;21.71;29.33;101546.44;4978467;28;99579;-85
2021/10/01 14:52:54;;;;;;;;;;;;;;;22.34;29.21;101532.09;4964077;28;96978;-84
2021/10/01 14:55:21;;;;;;;;;;;;;;;21.71;28.69;101536.53;4962058;28;98327;-84
2021/10/01 14:57:48;;;;;;;;;;;;;;;21.44;29.31;101535.75;4960225;28;98221;-85
2021/10/01 15:00:16;;;;;;;;;;;;;;;21.24;28.88;101534.41;4958810;28;96834;-83
2021/10/01 15:02:44;;;;;;;;;;;;;;;21.16;29.76;101541.25;4958549;28;97650;-87
2021/10/01 15:05:16;;;;;;;;;;;;;;;21.74;28.66;101524.69;4965906;28;98454;-86
2021/10/01 15:08:06;;;;;;;;;;;;;;;21.54;29.37;101525.19;4964160;28;97601;-86
2021/10/01 15:10:36;;;;;;;;;;;;;;;21.43;29.07;101520.56;4967279;28;96968;-87
2021/10/01 15:13:06;;;;;;;;;;;;;;;21.57;29.26;101525.00;4974423;28;97032;-87
2021/10/01 15:15:33;;;;;;;;;;;;;;;21.58;29.01;101514.16;4968982;28;99049;-87
2021/10/01 15:18:00;;;;;;;;;;;;;;;21.31;29.70;101521.41;4975152;28;98949;-85
2021/10/01 15:20:42;;;;;;;;;;;;;;;21.42;29.74;101525.09;4954614;28;97639;-88
2021/10/01 15:28:47;;;;;;;;;;;;;;;21.11;30.34;101508.44;4975631;28;97821;-89
2021/10/01 15:31:14;;;;;;;;;;;;;;;21.28;30.43;101509.03;4974604;28;97524;-90
2021/10/01 15:33:46;;;;;;;;;;;;;;;20.80;30.85;101509.63;4983144;28;97492;-88
2021/10/01 15:36:17;;;;;;;;;;;;;;;21.03;30.74;101511.63;4972960;28;98809;-86
2021/10/01 15:41:26;;;;;;;;;;;;;;;20.95;30.78;101509.44;4970038;28;96870;-84
2021/10/01 15:44:04;;;;;;;;;;;;;;;20.86;31.01;101501.16;4961556;28;96838;-93
2021/10/01 15:49:14;;;;;;;;;;;;;;;21.26;30.63;101496.69;4974380;28;96720;-86
2021/10/01 15:51:40;;;;;;;;;;;;;;;21.25;30.25;101495.81;4970536;28;97792;-88
2021/10/01 15:54:09;;;;;;;;;;;;;;;21.04;30.67;101487.34;4981110;28;96805;-87
2021/10/01 15:59:20;;;;;;;;;;;;;;;20.99;31.22;101489.50;4968230;28;96879;-86
2021/10/01 16:01:48;;;;;;;;;;;;;;;21.07;30.80;101492.50;4969517;28;97688;-87
2021/10/01 16:04:17;;;;;;;;;;;;;;;21.11;30.82;101489.63;4973749;28;96752;-85
2021/10/01 16:17:36;;;;;;;;;;;;;;;20.82;31.67;101496.94;4973541;28;97099;-89
2021/10/01 16:20:04;;;;;;;;;;;;;;;20.92;31.38;101495.38;4981256;28;98775;-88
2021/10/01 16:22:40;;;;;;;;;;;;;;;20.69;31.57;101496.88;4977075;28;96626;-90
2021/10/01 16:25:32;;;;;;;;;;;;;;;20.90;31.49;101495.47;4977680;28;96688;-92
2021/10/01 16:28:03;;;;;;;;;;;;;;;20.70;31.77;101493.25;5010489;22;99596;-91
2021/10/01 16:30:31;;;;;;;;;;;;;;;20.74;31.92;101494.78;5025961;28;98046;-90
2021/10/01 16:36:02;;;;;;;;;;;;;;;20.56;32.24;101487.91;5015207;28;95983;-93
2021/10/01 16:41:18;;;;;;;;;;;;;;;20.69;32.26;101496.88;5021714;28;96928;-83
2021/10/01 16:46:34;;;;;;;;;;;;;;;20.42;33.03;101487.94;5021182;28;97434;-83